createdAt,value
2023-04-23T00:01:20.703Z,2.80
2023-04-23T00:03:50.185Z,2.45
2023-04-23T00:06:17.957Z,2.40
2023-04-23T00:08:45.502Z,2.42
2023-04-23T00:11:12.882Z,2.30
2023-04-23T00:13:40.204Z,2.78
2023-04-23T00:16:08.352Z,2.55
2023-04-23T00:18:35.529Z,2.38
2023-04-23T00:21:02.622Z,2.60
2023-04-23T00:23:29.884Z,2.38
2023-04-23T00:25:57.132Z,2.40
2023-04-23T00:28:24.223Z,2.30
2023-04-23T00:30:51.405Z,2.50
2023-04-23T00:33:18.641Z,2.65
2023-04-23T00:35:45.907Z,2.30
2023-04-23T00:38:13.189Z,2.55
2023-04-23T00:40:40.653Z,2.33
2023-04-23T00:43:08.516Z,2.53
2023-04-23T00:45:35.910Z,2.60
2023-04-23T00:48:04.102Z,2.65
2023-04-23T00:50:31.222Z,2.47
2023-04-23T00:52:59.201Z,2.45
2023-04-23T00:55:26.380Z,2.55
2023-04-23T00:57:54.374Z,2.55
2023-04-23T01:00:22.030Z,2.88
2023-04-23T01:02:51.075Z,2.80
2023-04-23T01:05:19.943Z,2.63
2023-04-23T01:07:47.816Z,2.30
2023-04-23T01:10:15.203Z,2.33
2023-04-23T01:12:42.390Z,2.80
2023-04-23T01:15:10.258Z,2.53
2023-04-23T01:17:38.475Z,2.40
2023-04-23T01:20:06.991Z,2.70
2023-04-23T01:22:38.938Z,2.42
2023-04-23T01:25:08.288Z,2.50
2023-04-23T01:27:36.169Z,2.58
2023-04-23T01:30:04.966Z,2.42
2023-04-23T01:32:33.069Z,2.75
2023-04-23T01:35:00.552Z,2.47
2023-04-23T01:37:29.065Z,2.53
2023-04-23T01:39:56.854Z,2.53
2023-04-23T01:42:23.903Z,2.40
2023-04-23T01:44:54.222Z,2.47
2023-04-23T01:47:21.663Z,2.80
2023-04-23T01:49:48.875Z,2.60
2023-04-23T01:52:16.262Z,2.70
2023-04-23T01:54:43.730Z,2.78
2023-04-23T01:57:11.225Z,2.90
2023-04-23T01:59:39.292Z,2.33
2023-04-23T02:02:10.809Z,2.70
2023-04-23T02:04:40.522Z,2.60
2023-04-23T02:07:07.956Z,2.55
2023-04-23T02:09:35.131Z,2.78
2023-04-23T02:12:02.323Z,2.72
2023-04-23T02:14:30.047Z,2.60
2023-04-23T02:16:57.906Z,2.63
2023-04-23T02:19:25.038Z,2.80
2023-04-23T02:21:52.279Z,3.08
2023-04-23T02:24:19.364Z,2.70
2023-04-23T02:26:47.521Z,2.83
2023-04-23T02:29:16.041Z,2.67
2023-04-23T02:31:43.156Z,2.67
2023-04-23T02:34:10.610Z,2.80
2023-04-23T02:36:38.346Z,2.67
2023-04-23T02:39:05.615Z,2.57
2023-04-23T02:41:32.828Z,2.92
2023-04-23T02:43:59.943Z,2.80
2023-04-23T02:46:27.690Z,2.65
2023-04-23T02:48:54.907Z,2.58
2023-04-23T02:51:22.108Z,2.50
2023-04-23T02:53:49.470Z,2.50
2023-04-23T02:56:16.608Z,2.90
2023-04-23T02:58:43.756Z,2.97
2023-04-23T03:01:10.975Z,2.50
2023-04-23T03:03:38.664Z,2.85
2023-04-23T03:06:06.930Z,2.70
2023-04-23T03:08:34.376Z,2.87
2023-04-23T03:11:01.548Z,2.83
2023-04-23T03:13:28.845Z,2.90
2023-04-23T03:15:56.528Z,2.73
2023-04-23T03:18:23.630Z,2.70
2023-04-23T03:20:53.675Z,2.60
2023-04-23T03:23:20.798Z,2.60
2023-04-23T03:25:48.762Z,2.50
2023-04-23T03:28:16.160Z,2.60
2023-04-23T03:30:44.700Z,2.63
2023-04-23T03:33:11.983Z,2.70
2023-04-23T03:35:39.267Z,2.60
2023-04-23T03:38:11.950Z,2.80
2023-04-23T03:40:39.136Z,2.72
2023-04-23T03:43:08.359Z,3.00
2023-04-23T03:45:55.750Z,2.58
2023-04-23T03:48:23.478Z,2.83
2023-04-23T03:50:51.250Z,2.57
2023-04-23T03:53:32.972Z,2.80
2023-04-23T03:56:18.943Z,2.60
2023-04-23T03:59:04.249Z,2.87
2023-04-23T04:01:33.085Z,2.70
2023-04-23T04:04:00.526Z,2.70
2023-04-23T04:06:27.772Z,2.80
2023-04-23T04:08:56.419Z,2.83
2023-04-23T04:11:23.490Z,2.70
2023-04-23T04:13:50.642Z,2.70
2023-04-23T04:16:17.844Z,2.87
2023-04-23T04:18:45.182Z,3.03
2023-04-23T04:21:12.240Z,2.60
2023-04-23T04:23:40.006Z,2.90
2023-04-23T04:26:08.554Z,2.83
2023-04-23T04:28:37.425Z,2.70
2023-04-23T04:31:05.679Z,2.63
2023-04-23T04:33:35.834Z,3.03
2023-04-23T04:36:03.641Z,2.80
2023-04-23T04:38:31.012Z,2.87
2023-04-23T04:41:01.765Z,2.93
2023-04-23T04:43:28.950Z,2.50
2023-04-23T04:45:56.008Z,2.50
2023-04-23T04:48:23.157Z,2.60
2023-04-23T04:50:50.433Z,2.60
2023-04-23T04:53:17.731Z,2.50
2023-04-23T04:55:44.934Z,2.50
2023-04-23T04:58:12.397Z,3.00
2023-04-23T05:00:39.780Z,2.60
2023-04-23T05:03:07.830Z,2.90
2023-04-23T05:05:35.240Z,2.50
2023-04-23T05:08:05.619Z,2.70
2023-04-23T05:10:32.706Z,2.37
2023-04-23T05:13:00.901Z,2.70
2023-04-23T05:15:28.121Z,2.80
2023-04-23T05:17:55.323Z,2.47
2023-04-23T05:20:22.858Z,2.53
2023-04-23T05:22:50.057Z,2.50
2023-04-23T05:25:17.166Z,2.70
2023-04-23T05:27:44.360Z,2.50
2023-04-23T05:30:11.827Z,2.50
2023-04-23T05:32:39.522Z,2.60
2023-04-23T05:35:07.276Z,2.20
2023-04-23T05:37:34.825Z,2.40
2023-04-23T05:40:02.841Z,4.57
2023-04-23T05:42:29.938Z,6.43
2023-04-23T05:44:56.996Z,3.00
2023-04-23T05:47:24.551Z,2.50
2023-04-23T05:49:51.653Z,2.50
2023-04-23T05:52:19.323Z,2.70
2023-04-23T05:54:46.400Z,3.00
2023-04-23T05:57:13.628Z,2.77
2023-04-23T05:59:40.698Z,2.87
2023-04-23T06:02:09.467Z,2.80
2023-04-23T06:04:37.521Z,2.53
2023-04-23T06:07:06.385Z,5.57
2023-04-23T06:09:33.709Z,4.73
2023-04-23T06:12:01.069Z,5.70
2023-04-23T06:14:28.234Z,3.93
2023-04-23T06:16:55.367Z,3.57
2023-04-23T06:19:25.109Z,2.73
2023-04-23T06:21:52.384Z,2.93
2023-04-23T06:24:19.537Z,3.10
2023-04-23T06:26:46.851Z,2.80
2023-04-23T06:29:18.038Z,2.63
2023-04-23T06:32:01.419Z,2.20
2023-04-23T06:34:28.523Z,2.57
2023-04-23T06:36:55.791Z,2.70
2023-04-23T06:39:22.892Z,2.87
2023-04-23T06:41:49.942Z,3.60
2023-04-23T06:44:32.184Z,3.00
2023-04-23T06:46:59.426Z,2.93
2023-04-23T06:49:27.349Z,2.90
2023-04-23T06:51:57.074Z,2.47
2023-04-23T06:54:24.995Z,2.90
2023-04-23T06:56:52.318Z,2.87
2023-04-23T06:59:19.810Z,3.30
2023-04-23T07:01:50.818Z,3.47
2023-04-23T07:04:18.009Z,3.97
2023-04-23T07:06:45.165Z,3.10
2023-04-23T07:09:15.529Z,2.70
2023-04-23T07:11:44.079Z,2.70
2023-04-23T07:14:11.193Z,2.60
2023-04-23T07:16:38.303Z,2.80
2023-04-23T07:19:05.691Z,2.97
2023-04-23T07:21:33.186Z,3.00
2023-04-23T07:24:00.905Z,5.40
2023-04-23T07:26:28.219Z,3.00
2023-04-23T07:28:55.462Z,3.23
2023-04-23T07:31:23.919Z,3.17
2023-04-23T07:33:51.084Z,2.90
2023-04-23T07:36:18.200Z,2.83
2023-04-23T07:38:45.368Z,2.83
2023-04-23T07:41:12.648Z,3.07
2023-04-23T07:43:41.105Z,2.60
2023-04-23T07:46:09.476Z,2.60
2023-04-23T07:48:36.889Z,3.13
2023-04-23T07:51:04.552Z,2.43
2023-04-23T07:53:31.732Z,2.80
2023-04-23T07:55:58.922Z,2.77
2023-04-23T07:58:26.133Z,2.63
2023-04-23T08:00:53.297Z,2.50
2023-04-23T08:03:20.764Z,2.63
2023-04-23T08:05:48.232Z,2.60
2023-04-23T08:08:15.345Z,2.67
2023-04-23T08:10:42.592Z,2.43
2023-04-23T08:13:09.797Z,2.67
2023-04-23T08:15:37.112Z,2.40
2023-04-23T08:18:04.755Z,2.80
2023-04-23T08:20:34.943Z,2.60
2023-04-23T08:23:02.245Z,2.67
2023-04-23T08:25:29.282Z,2.20
2023-04-23T08:27:56.580Z,3.20
2023-04-23T08:30:23.804Z,3.00
2023-04-23T08:32:53.974Z,2.80
2023-04-23T08:35:22.337Z,2.90
2023-04-23T08:37:49.473Z,2.67
2023-04-23T08:40:17.144Z,3.30
2023-04-23T08:42:57.429Z,2.70
2023-04-23T08:45:26.328Z,2.80
2023-04-23T08:48:02.657Z,2.93
2023-04-23T08:50:31.110Z,2.80
2023-04-23T08:52:58.738Z,2.73
2023-04-23T08:55:26.512Z,2.50
2023-04-23T08:57:55.164Z,2.70
2023-04-23T09:00:26.167Z,2.20
2023-04-23T09:02:53.582Z,2.30
2023-04-23T09:05:21.104Z,2.50
2023-04-23T09:07:48.227Z,2.67
2023-04-23T09:10:18.419Z,2.20
2023-04-23T09:12:46.845Z,2.10
2023-04-23T09:15:14.165Z,2.27
2023-04-23T09:17:46.033Z,2.40
2023-04-23T09:20:14.577Z,2.10
2023-04-23T09:22:51.492Z,2.03
2023-04-23T09:25:20.983Z,2.20
2023-04-23T09:27:49.276Z,1.97
2023-04-23T09:30:17.295Z,1.97
2023-04-23T09:32:49.601Z,1.90
2023-04-23T09:35:19.663Z,2.03
2023-04-23T09:37:49.539Z,3.33
2023-04-23T09:40:18.567Z,2.00
2023-04-23T09:42:50.111Z,2.33
2023-04-23T09:45:17.574Z,1.70
2023-04-23T09:47:52.220Z,2.00
2023-04-23T09:50:20.770Z,2.23
2023-04-23T09:52:56.246Z,1.97
2023-04-23T09:55:31.148Z,2.17
2023-04-23T09:57:59.233Z,2.07
2023-04-23T10:00:29.450Z,1.70
2023-04-23T10:02:56.682Z,1.90
2023-04-23T10:05:26.029Z,2.03
2023-04-23T10:08:00.461Z,1.67
2023-04-23T10:10:27.897Z,2.00
2023-04-23T10:12:56.123Z,1.80
2023-04-23T10:15:27.532Z,1.77
2023-04-23T10:17:55.916Z,1.80
2023-04-23T10:20:23.990Z,1.80
2023-04-23T10:22:53.686Z,1.80
2023-04-23T10:25:23.272Z,1.50
2023-04-23T10:27:54.373Z,1.80
2023-04-23T10:30:23.131Z,1.90
2023-04-23T10:32:51.598Z,1.70
2023-04-23T10:35:18.933Z,1.87
2023-04-23T10:37:48.303Z,1.80
2023-04-23T10:40:22.274Z,1.70
2023-04-23T10:42:50.151Z,1.90
2023-04-23T10:45:24.580Z,1.77
2023-04-23T10:47:55.356Z,1.80
2023-04-23T10:50:27.961Z,1.70
2023-04-23T10:52:57.378Z,1.70
2023-04-23T10:55:32.816Z,1.80
2023-04-23T10:58:08.397Z,1.83
2023-04-23T11:00:41.763Z,1.83
2023-04-23T11:03:45.384Z,1.93
2023-04-23T11:06:47.626Z,2.10
2023-04-23T11:09:31.454Z,1.43
2023-04-23T11:11:59.931Z,1.87
2023-04-23T11:14:45.990Z,1.77
2023-04-23T11:17:14.144Z,1.80
2023-04-23T11:19:43.045Z,1.90
2023-04-23T11:22:20.658Z,2.10
2023-04-23T11:24:50.797Z,1.77
2023-04-23T11:27:19.859Z,1.80
2023-04-23T11:29:47.954Z,2.00
2023-04-23T11:32:17.488Z,2.00
2023-04-23T11:34:46.821Z,1.57
2023-04-23T11:37:18.583Z,1.90
2023-04-23T11:39:47.639Z,1.80
2023-04-23T11:42:16.009Z,1.83
2023-04-23T11:44:45.086Z,1.70
2023-04-23T11:47:13.911Z,1.50
2023-04-23T11:49:43.205Z,1.60
2023-04-23T11:52:12.187Z,1.93
2023-04-23T11:54:42.217Z,1.83
2023-04-23T11:57:10.440Z,1.90
2023-04-23T11:59:37.916Z,1.73
2023-04-23T12:02:05.103Z,1.60
2023-04-23T12:04:33.930Z,1.65
2023-04-23T12:07:04.333Z,1.80
2023-04-23T12:09:38.342Z,1.80
2023-04-23T12:12:06.294Z,1.80
2023-04-23T12:14:33.710Z,1.45
2023-04-23T12:17:11.052Z,1.70
2023-04-23T12:19:40.540Z,1.88
2023-04-23T12:22:08.685Z,1.80
2023-04-23T12:24:54.916Z,1.52
2023-04-23T12:27:22.969Z,1.65
2023-04-23T12:29:59.569Z,1.48
2023-04-23T12:32:27.174Z,1.63
2023-04-23T12:34:55.790Z,1.70
2023-04-23T12:37:27.300Z,1.42
2023-04-23T12:39:56.802Z,1.63
2023-04-23T12:42:24.901Z,1.75
2023-04-23T12:44:52.162Z,1.40
2023-04-23T12:47:21.877Z,1.40
2023-04-23T12:49:53.179Z,1.48
2023-04-23T12:52:21.149Z,1.50
2023-04-23T12:54:52.276Z,1.25
2023-04-23T12:57:23.399Z,1.25
2023-04-23T12:59:51.215Z,1.20
2023-04-23T13:02:18.388Z,1.50
2023-04-23T13:04:45.605Z,1.50
2023-04-23T13:07:12.658Z,1.50
2023-04-23T13:09:39.774Z,1.42
2023-04-23T13:12:06.840Z,1.50
2023-04-23T13:14:33.969Z,1.50
2023-04-23T13:17:01.442Z,1.58
2023-04-23T13:19:28.554Z,1.33
2023-04-23T13:21:55.696Z,1.20
2023-04-23T13:24:22.765Z,1.58
2023-04-23T13:26:49.860Z,1.30
2023-04-23T13:29:16.923Z,1.30
2023-04-23T13:31:44.149Z,1.30
2023-04-23T13:34:11.234Z,1.20
2023-04-23T13:36:41.486Z,1.33
2023-04-23T13:39:10.179Z,1.30
2023-04-23T13:41:37.535Z,1.10
2023-04-23T13:44:04.809Z,1.23
2023-04-23T13:46:32.422Z,1.13
2023-04-23T13:49:01.307Z,1.30
2023-04-23T13:51:35.242Z,1.27
2023-04-23T13:54:03.236Z,1.20
2023-04-23T13:56:31.283Z,1.38
2023-04-23T13:59:18.751Z,1.23
2023-04-23T14:01:50.902Z,1.38
2023-04-23T14:04:19.154Z,1.30
2023-04-23T14:06:46.339Z,1.20
2023-04-23T14:09:13.414Z,1.48
2023-04-23T14:11:41.648Z,1.20
2023-04-23T14:14:08.914Z,1.20
2023-04-23T14:16:36.482Z,0.98
2023-04-23T14:19:03.630Z,1.30
2023-04-23T14:21:30.731Z,1.30
2023-04-23T14:24:17.276Z,1.13
2023-04-23T14:26:49.201Z,1.50
2023-04-23T14:29:22.702Z,1.58
2023-04-23T14:31:50.008Z,1.42
2023-04-23T14:34:17.279Z,1.45
2023-04-23T14:36:46.560Z,1.30
2023-04-23T14:39:13.619Z,1.30
2023-04-23T14:41:41.049Z,1.27
2023-04-23T14:44:11.331Z,1.30
2023-04-23T14:46:38.625Z,1.40
2023-04-23T14:49:06.464Z,1.40
2023-04-23T14:51:33.882Z,1.30
2023-04-23T14:54:00.966Z,1.40
2023-04-23T14:56:29.290Z,1.40
2023-04-23T14:58:56.364Z,1.23
2023-04-23T15:01:24.059Z,1.45
2023-04-23T15:03:53.396Z,1.40
2023-04-23T15:06:20.645Z,1.23
2023-04-23T15:08:48.560Z,1.38
2023-04-23T15:11:15.929Z,1.40
2023-04-23T15:14:01.110Z,1.25
2023-04-23T15:19:05.345Z,1.30
2023-04-23T15:21:32.815Z,1.20
2023-04-23T15:23:59.891Z,1.42
2023-04-23T15:26:27.300Z,1.38
2023-04-23T15:28:54.366Z,1.25
2023-04-23T15:31:21.529Z,1.63
2023-04-23T15:33:48.709Z,1.30
2023-04-23T15:36:15.807Z,1.25
2023-04-23T15:38:43.055Z,1.38
2023-04-23T15:41:11.630Z,1.17
2023-04-23T15:43:38.765Z,1.30
2023-04-23T15:46:05.990Z,1.30
2023-04-23T15:48:33.145Z,1.35
2023-04-23T15:51:00.363Z,1.30
2023-04-23T15:53:28.183Z,1.40
2023-04-23T15:55:55.774Z,1.40
2023-04-23T15:58:22.888Z,1.40
2023-04-23T16:00:50.032Z,1.30
2023-04-23T16:03:17.274Z,1.30
2023-04-23T16:05:44.976Z,1.30
2023-04-23T16:08:12.134Z,1.38
2023-04-23T16:10:39.465Z,1.50
2023-04-23T16:13:06.727Z,1.30
2023-04-23T16:15:33.825Z,1.60
2023-04-23T16:18:01.345Z,1.50
2023-04-23T16:20:29.069Z,1.58
2023-04-23T16:22:56.314Z,1.30
2023-04-23T16:25:23.729Z,1.40
2023-04-23T16:27:50.955Z,1.58
2023-04-23T16:30:18.176Z,1.88
2023-04-23T16:32:46.014Z,1.40
2023-04-23T16:35:13.303Z,1.50
2023-04-23T16:37:40.563Z,1.73
2023-04-23T16:40:08.214Z,1.50
2023-04-23T16:42:35.481Z,1.63
2023-04-23T16:45:03.095Z,1.80
2023-04-23T16:47:30.328Z,1.80
2023-04-23T16:49:57.610Z,1.80
2023-04-23T16:52:24.833Z,1.80
2023-04-23T16:54:52.298Z,1.70
2023-04-23T16:57:19.432Z,1.80
2023-04-23T16:59:46.670Z,2.63
2023-04-23T17:02:13.801Z,2.22
2023-04-23T17:04:41.074Z,2.47
2023-04-23T17:07:08.473Z,2.00
2023-04-23T17:09:35.551Z,2.10
2023-04-23T17:12:02.902Z,1.80
2023-04-23T17:14:29.998Z,2.08
2023-04-23T17:16:57.026Z,1.80
2023-04-23T17:19:24.188Z,2.05
2023-04-23T17:21:51.553Z,2.00
2023-04-23T17:24:18.629Z,2.30
2023-04-23T17:26:47.562Z,2.00
2023-04-23T17:29:15.168Z,1.90
2023-04-23T17:31:42.294Z,2.05
2023-04-23T17:34:09.423Z,1.98
2023-04-23T17:36:36.498Z,2.00
2023-04-23T17:39:03.982Z,1.90
2023-04-23T17:41:31.154Z,2.17
2023-04-23T17:43:58.226Z,2.08
2023-04-23T17:46:25.398Z,2.20
2023-04-23T17:48:52.826Z,2.20
2023-04-23T17:51:19.975Z,1.95
2023-04-23T17:53:48.608Z,2.00
2023-04-23T17:56:16.744Z,1.80
2023-04-23T17:58:43.994Z,1.77
2023-04-23T18:01:11.598Z,2.00
2023-04-23T18:03:38.851Z,1.90
2023-04-23T18:06:08.499Z,1.80
2023-04-23T18:08:36.552Z,1.80
2023-04-23T18:11:05.793Z,1.83
2023-04-23T18:13:33.134Z,2.13
2023-04-23T18:16:00.325Z,2.58
2023-04-23T18:18:27.658Z,2.42
2023-04-23T18:20:55.013Z,2.10
2023-04-23T18:23:22.365Z,2.10
2023-04-23T18:25:49.607Z,2.00
2023-04-23T18:28:23.535Z,1.90
2023-04-23T18:30:55.514Z,2.13
2023-04-23T18:33:33.103Z,1.98
2023-04-23T18:36:16.407Z,2.03
2023-04-23T18:38:45.330Z,2.30
2023-04-23T18:41:12.415Z,2.30
2023-04-23T18:43:39.618Z,2.35
2023-04-23T18:46:06.747Z,2.28
2023-04-23T18:48:33.798Z,2.35
2023-04-23T18:51:14.038Z,2.30
2023-04-23T18:53:41.130Z,2.40
2023-04-23T18:56:08.247Z,2.30
2023-04-23T18:58:38.421Z,2.00
2023-04-23T19:01:06.234Z,2.35
2023-04-23T19:03:33.853Z,2.53
2023-04-23T19:06:01.081Z,2.05
2023-04-23T19:08:31.077Z,2.40
2023-04-23T19:10:58.135Z,2.13
2023-04-23T19:13:25.412Z,2.47
2023-04-23T19:15:52.727Z,2.20
2023-04-23T19:18:20.514Z,2.38
2023-04-23T19:20:47.590Z,2.10
2023-04-23T19:23:14.928Z,2.20
2023-04-23T19:25:41.984Z,2.03
2023-04-23T19:28:09.093Z,2.10
2023-04-23T19:30:37.897Z,2.20
2023-04-23T19:33:05.207Z,2.00
2023-04-23T19:35:32.554Z,2.17
2023-04-23T19:37:59.638Z,2.20
2023-04-23T19:40:26.758Z,2.10
2023-04-23T19:42:53.846Z,2.10
2023-04-23T19:45:21.061Z,1.98
2023-04-23T19:47:48.291Z,2.20
2023-04-23T19:50:15.509Z,2.10
2023-04-23T19:52:42.692Z,2.20
2023-04-23T19:55:09.992Z,2.20
2023-04-23T19:57:37.307Z,2.10
2023-04-23T20:00:13.613Z,2.40
2023-04-23T20:02:41.294Z,2.10
2023-04-23T20:05:10.564Z,2.00
2023-04-23T20:07:38.797Z,1.10
2023-04-23T20:10:06.572Z,1.20
2023-04-23T20:12:34.028Z,3.80
2023-04-23T20:15:01.194Z,14.77
2023-04-23T20:17:30.088Z,4.83
2023-04-23T20:20:01.899Z,3.33
2023-04-23T20:22:29.934Z,2.57
2023-04-23T20:24:58.964Z,1.70
2023-04-23T20:27:26.511Z,1.40
2023-04-23T20:29:53.805Z,1.73
2023-04-23T20:32:21.020Z,2.03
2023-04-23T20:34:48.072Z,1.90
2023-04-23T20:37:15.310Z,1.90
2023-04-23T20:39:43.098Z,2.40
2023-04-23T20:42:10.341Z,2.60
2023-04-23T20:45:02.392Z,2.20
2023-04-23T20:47:29.754Z,2.33
2023-04-23T20:49:57.182Z,1.80
2023-04-23T20:52:24.626Z,1.60
2023-04-23T20:54:52.085Z,2.23
2023-04-23T20:57:19.577Z,2.30
2023-04-23T20:59:47.064Z,1.50
2023-04-23T21:02:15.460Z,2.10
2023-04-23T21:04:43.014Z,1.70
2023-04-23T21:07:10.666Z,1.80
2023-04-23T21:09:38.010Z,1.53
2023-04-23T21:12:05.755Z,1.60
2023-04-23T21:14:33.805Z,1.30
2023-04-23T21:17:01.113Z,1.50
2023-04-23T21:19:28.469Z,1.33
2023-04-23T21:21:55.800Z,1.50
2023-04-23T21:24:23.165Z,1.37
2023-04-23T21:26:50.716Z,1.10
2023-04-23T21:29:18.114Z,1.20
2023-04-23T21:31:51.413Z,1.30
2023-04-23T21:34:19.883Z,1.47
2023-04-23T21:36:47.288Z,1.50
2023-04-23T21:39:14.750Z,1.60
2023-04-23T21:41:42.758Z,1.50
2023-04-23T21:44:10.128Z,1.10
2023-04-23T21:46:37.611Z,1.50
2023-04-23T21:49:05.147Z,1.20
2023-04-23T21:51:37.250Z,1.30
2023-04-23T21:54:08.285Z,1.13
2023-04-23T21:56:36.028Z,1.30
2023-04-23T21:59:03.626Z,1.20
2023-04-23T22:01:32.602Z,1.20
2023-04-23T22:04:03.446Z,1.20
2023-04-23T22:06:31.393Z,1.10
2023-04-23T22:08:59.273Z,1.27
2023-04-23T22:11:27.194Z,1.10
2023-04-23T22:13:54.536Z,1.17
2023-04-23T22:16:28.712Z,1.20
2023-04-23T22:18:57.825Z,1.13
2023-04-23T22:21:25.392Z,1.47
2023-04-23T22:23:52.811Z,1.40
2023-04-23T22:26:20.325Z,1.20
2023-04-23T22:28:47.768Z,1.10
2023-04-23T22:31:16.169Z,1.13
2023-04-23T22:33:43.536Z,1.10
2023-04-23T22:36:11.542Z,0.97
2023-04-23T22:38:39.013Z,1.00
2023-04-23T22:41:06.963Z,1.07
2023-04-23T22:43:34.383Z,1.10
2023-04-23T22:46:01.878Z,1.10
2023-04-23T22:48:29.417Z,1.10
2023-04-23T22:50:57.750Z,0.80
2023-04-23T22:53:25.484Z,1.10
2023-04-23T22:55:53.002Z,1.03
2023-04-23T22:58:20.742Z,1.00
2023-04-23T23:00:48.128Z,0.97
2023-04-23T23:03:16.030Z,0.90
2023-04-23T23:05:43.438Z,1.00
2023-04-23T23:08:10.894Z,1.00
2023-04-23T23:10:38.266Z,0.90
2023-04-23T23:13:05.601Z,0.90
2023-04-23T23:15:33.434Z,1.00
2023-04-23T23:18:00.907Z,1.00
2023-04-23T23:20:28.638Z,1.00
2023-04-23T23:22:56.071Z,1.17
2023-04-23T23:25:23.424Z,0.97
2023-04-23T23:27:50.877Z,1.00
2023-04-23T23:30:18.531Z,0.90
2023-04-23T23:32:46.444Z,1.20
2023-04-23T23:35:14.429Z,0.97
2023-04-23T23:37:41.720Z,1.10
2023-04-23T23:40:10.112Z,1.03
2023-04-23T23:42:37.453Z,0.83
2023-04-23T23:45:05.255Z,1.00
2023-04-23T23:47:32.682Z,1.10
2023-04-23T23:50:00.049Z,1.10
2023-04-23T23:52:27.460Z,1.00
2023-04-23T23:54:55.316Z,1.10
2023-04-23T23:57:23.068Z,1.10
2023-04-23T23:59:50.779Z,1.20
